Time;durP1;ratioP1;P1;durP2;ratioP2;P2;SDS_P1;SDS_P2;PMS_P1;PMS_P2;Temp;Humidity;BMP_temperature;BMP_pressure;BME280_temperature;BME280_humidity;BME280_pressure;Samples;Min_cycle;Max_cycle;Signal;HPM_P1;HPM_P2
2022/07/09 00:01:38;;;;;;;18.92;9.95;;;;;;;22.67;100.00;102692.31;5076270;28;20067;-51
2022/07/09 00:04:04;;;;;;;20.27;10.43;;;;;;;22.70;100.00;102691.84;5073296;28;20040;-54
2022/07/09 00:06:31;;;;;;;14.55;9.13;;;;;;;22.85;100.00;102687.88;5076740;28;20033;-54
2022/07/09 00:08:57;;;;;;;14.20;7.50;;;;;;;22.76;100.00;102690.91;5072777;28;20044;-55
2022/07/09 00:11:23;;;;;;;13.83;8.17;;;;;;;22.86;100.00;102689.53;5076258;28;20033;-54
2022/07/09 00:13:48;;;;;;;20.65;9.02;;;;;;;22.69;100.00;102684.72;5080422;28;20043;-55
2022/07/09 00:16:14;;;;;;;15.73;8.23;;;;;;;22.62;100.00;102681.28;5076828;28;20044;-54
2022/07/09 00:18:39;;;;;;;17.10;8.02;;;;;;;22.65;100.00;102688.16;5078633;28;20037;-54
2022/07/09 00:21:05;;;;;;;16.35;8.48;;;;;;;22.32;100.00;102690.25;5079368;28;20047;-54
2022/07/09 00:23:31;;;;;;;;;;;;;;;22.32;100.00;102690.25;5078563;28;20033;-52
2022/07/09 00:25:56;;;;;;;16.87;8.10;;;;;;;22.39;100.00;102677.38;5082925;28;19927;-54
2022/07/09 00:28:22;;;;;;;19.30;8.05;;;;;;;22.25;100.00;102681.34;5076737;28;20037;-53
2022/07/09 00:30:48;;;;;;;17.45;8.43;;;;;;;22.16;100.00;102683.53;5078053;28;20029;-54
2022/07/09 00:33:13;;;;;;;18.47;8.73;;;;;;;22.32;100.00;102680.19;5077080;28;20068;-50
2022/07/09 00:35:38;;;;;;;17.00;8.03;;;;;;;22.25;100.00;102687.59;5078336;28;20289;-55
2022/07/09 00:38:04;;;;;;;16.83;9.02;;;;;;;22.19;100.00;102692.09;5078314;28;20273;-55
2022/07/09 00:40:29;;;;;;;16.43;8.30;;;;;;;22.10;100.00;102685.28;5078670;28;20056;-52
2022/07/09 00:42:55;;;;;;;17.42;8.63;;;;;;;22.00;100.00;102687.72;5074616;28;20059;-54
2022/07/09 00:45:20;;;;;;;17.70;9.33;;;;;;;22.02;100.00;102689.13;5078904;28;20051;-52
2022/07/09 00:47:46;;;;;;;19.67;8.40;;;;;;;21.95;100.00;102684.84;5080469;28;20072;-51
2022/07/09 00:50:12;;;;;;;18.50;9.02;;;;;;;21.88;100.00;102679.47;5076548;28;20053;-52
2022/07/09 00:52:39;;;;;;;14.13;8.00;;;;;;;21.74;100.00;102674.16;5083617;28;20028;-54
2022/07/09 00:55:06;;;;;;;17.30;9.07;;;;;;;21.53;100.00;102672.69;5077123;28;20036;-54
2022/07/09 00:57:33;;;;;;;19.20;8.90;;;;;;;21.68;100.00;102679.69;5079908;28;20078;-52
2022/07/09 00:59:58;;;;;;;20.27;9.97;;;;;;;21.68;100.00;102674.22;5079329;28;20029;-51
2022/07/09 01:02:24;;;;;;;15.20;8.40;;;;;;;21.70;100.00;102672.16;5074629;28;20059;-54
2022/07/09 01:04:50;;;;;;;14.18;9.48;;;;;;;21.47;100.00;102668.97;5081956;28;20053;-54
2022/07/09 01:07:17;;;;;;;18.03;9.33;;;;;;;21.49;100.00;102664.13;5076947;28;20036;-54
2022/07/09 01:09:42;;;;;;;20.73;9.98;;;;;;;21.35;100.00;102671.59;5077926;28;20039;-52
2022/07/09 01:12:08;;;;;;;26.80;9.45;;;;;;;21.44;100.00;102664.00;5076223;28;20090;-53
2022/07/09 01:14:34;;;;;;;16.67;9.68;;;;;;;21.41;100.00;102663.59;5078014;28;20059;-54
2022/07/09 01:17:01;;;;;;;15.68;8.70;;;;;;;21.31;100.00;102664.94;5081116;28;20040;-53
2022/07/09 01:19:28;;;;;;;14.33;8.97;;;;;;;21.27;100.00;102658.28;5075933;28;20078;-53
2022/07/09 01:21:53;;;;;;;;;;;;;;;21.27;100.00;102657.44;5081408;28;20041;-53
2022/07/09 01:24:19;;;;;;;18.03;9.63;;;;;;;21.14;100.00;102656.53;5075749;28;19975;-55
2022/07/09 01:26:45;;;;;;;19.40;9.57;;;;;;;21.23;100.00;102653.50;5081076;28;20036;-53
2022/07/09 01:29:10;;;;;;;14.63;9.20;;;;;;;21.24;100.00;102650.59;5076961;28;20049;-51
2022/07/09 01:31:36;;;;;;;19.17;9.57;;;;;;;21.26;100.00;102653.91;5083273;28;20033;-54
2022/07/09 01:34:02;;;;;;;16.77;9.95;;;;;;;21.22;100.00;102644.53;5075824;28;20060;-54
2022/07/09 01:36:27;;;;;;;14.77;9.20;;;;;;;21.34;100.00;102650.88;5082586;28;20067;-56
2022/07/09 01:38:53;;;;;;;14.57;9.77;;;;;;;21.41;100.00;102647.25;5076868;28;20054;-54
2022/07/09 01:41:18;;;;;;;18.05;10.13;;;;;;;21.32;100.00;102646.72;5079599;28;20273;-55
2022/07/09 01:43:44;;;;;;;20.17;10.20;;;;;;;21.36;100.00;102645.25;5077199;28;20048;-54
2022/07/09 01:46:09;;;;;;;21.85;11.05;;;;;;;21.07;100.00;102647.56;5077684;28;20278;-53
2022/07/09 01:48:38;;;;;;;22.13;11.80;;;;;;;21.14;100.00;102640.22;5073128;28;20139;-53
2022/07/09 01:51:04;;;;;;;19.60;11.87;;;;;;;20.97;100.00;102644.53;5076348;28;20279;-51
2022/07/09 01:53:29;;;;;;;19.80;12.15;;;;;;;20.99;100.00;102635.13;5073727;28;20285;-53
2022/07/09 01:55:55;;;;;;;28.02;15.52;;;;;;;20.90;100.00;102641.84;5082643;28;20060;-51
2022/07/09 01:58:20;;;;;;;27.85;14.52;;;;;;;20.96;100.00;102627.38;5077647;28;20064;-52
2022/07/09 02:00:46;;;;;;;22.57;14.17;;;;;;;21.08;100.00;102632.09;5077822;28;20047;-54
2022/07/09 02:03:11;;;;;;;25.75;15.38;;;;;;;20.94;100.00;102628.66;5073633;28;20068;-54
2022/07/09 02:05:37;;;;;;;26.05;16.17;;;;;;;21.01;100.00;102638.44;5077588;28;20040;-53
2022/07/09 02:08:03;;;;;;;28.45;14.80;;;;;;;20.95;100.00;102642.03;5077401;28;20044;-54
2022/07/09 02:10:30;;;;;;;27.90;16.75;;;;;;;20.81;100.00;102643.19;5077779;28;20131;-52
2022/07/09 02:12:56;;;;;;;29.30;15.60;;;;;;;20.77;100.00;102632.75;5077896;28;20059;-53
2022/07/09 02:15:21;;;;;;;33.17;16.98;;;;;;;20.78;100.00;102633.56;5082673;28;20333;-53
2022/07/09 02:17:47;;;;;;;31.05;17.27;;;;;;;20.80;100.00;102630.66;5075404;28;20033;-54
2022/07/09 02:20:13;;;;;;;29.38;15.82;;;;;;;20.79;100.00;102629.78;5081404;28;20105;-56
2022/07/09 02:22:38;;;;;;;27.80;18.10;;;;;;;20.62;100.00;102627.59;5073725;28;20055;-56
2022/07/09 02:25:05;;;;;;;33.55;18.58;;;;;;;20.60;100.00;102626.97;5077411;28;20029;-54
2022/07/09 02:27:31;;;;;;;39.90;18.77;;;;;;;20.60;100.00;102616.09;5076690;28;20040;-55
2022/07/09 02:29:56;;;;;;;35.23;18.93;;;;;;;20.44;100.00;102612.03;5079325;28;20278;-55
2022/07/09 02:32:22;;;;;;;32.85;18.65;;;;;;;20.51;100.00;102616.59;5075560;28;20116;-54
2022/07/09 02:34:47;;;;;;;33.83;19.40;;;;;;;20.60;100.00;102616.09;5076301;28;20053;-51
2022/07/09 02:37:13;;;;;;;37.75;18.25;;;;;;;20.41;100.00;102611.63;5076688;28;20040;-55
2022/07/09 02:39:38;;;;;;;38.30;19.90;;;;;;;20.34;100.00;102617.94;5073749;28;20055;-52
2022/07/09 02:42:04;;;;;;;36.08;19.13;;;;;;;20.58;100.00;102614.69;5077807;28;20045;-53
2022/07/09 02:44:30;;;;;;;41.75;20.50;;;;;;;20.46;100.00;102611.84;5078642;28;20041;-55
2022/07/09 02:46:56;;;;;;;;;;;;;;;20.22;100.00;102613.44;5078584;28;20164;-56
2022/07/09 02:49:23;;;;;;;37.30;19.90;;;;;;;20.42;100.00;102610.63;5076031;28;19912;-53
2022/07/09 02:51:48;;;;;;;37.73;20.97;;;;;;;20.52;100.00;102612.81;5076704;28;20048;-53
2022/07/09 02:54:14;;;;;;;39.60;20.33;;;;;;;20.15;100.00;102613.47;5075529;28;20257;-56
2022/07/09 02:56:39;;;;;;;38.17;21.60;;;;;;;20.33;100.00;102618.19;5075457;28;20041;-57
2022/07/09 02:59:05;;;;;;;39.70;22.35;;;;;;;20.37;100.00;102619.41;5074180;28;20079;-56
2022/07/09 03:01:30;;;;;;;33.77;21.27;;;;;;;20.26;100.00;102617.38;5078462;28;20048;-55
2022/07/09 03:03:56;;;;;;;36.97;20.48;;;;;;;20.34;100.00;102617.13;5071699;28;20033;-55
2022/07/09 03:06:22;;;;;;;42.60;22.57;;;;;;;20.42;100.00;102619.59;5077847;28;20118;-52
2022/07/09 03:08:48;;;;;;;42.35;22.40;;;;;;;20.35;100.00;102611.47;5074487;28;20024;-49
2022/07/09 03:11:14;;;;;;;40.20;23.73;;;;;;;20.88;100.00;102616.78;5070557;28;20033;-54
2022/07/09 03:13:40;;;;;;;43.28;22.38;;;;;;;21.09;100.00;102618.25;5070590;28;20297;-54
2022/07/09 03:16:06;;;;;;;40.28;22.52;;;;;;;20.58;100.00;102617.41;5073839;28;20033;-53
2022/07/09 03:18:33;;;;;;;49.77;23.43;;;;;;;20.65;100.00;102615.47;5072781;28;20040;-54
2022/07/09 03:20:58;;;;;;;40.42;23.42;;;;;;;20.57;100.00;102613.84;5071971;28;20277;-57
2022/07/09 03:23:23;;;;;;;45.45;24.38;;;;;;;20.35;100.00;102611.47;5075206;28;20037;-55
2022/07/09 03:25:49;;;;;;;44.37;23.50;;;;;;;20.41;100.00;102612.47;5075793;28;20045;-53
2022/07/09 03:28:14;;;;;;;39.72;22.67;;;;;;;20.56;100.00;102608.63;5077257;28;20032;-56
2022/07/09 03:30:40;;;;;;;41.25;23.50;;;;;;;20.51;100.00;102611.16;5073844;28;20093;-54
2022/07/09 03:33:06;;;;;;;45.88;25.88;;;;;;;20.37;100.00;102600.41;5075959;28;20096;-55
2022/07/09 03:35:31;;;;;;;48.92;24.17;;;;;;;20.65;100.00;102607.31;5078638;28;20033;-57
2022/07/09 03:37:56;;;;;;;51.13;23.90;;;;;;;20.76;100.00;102608.47;5069031;28;20055;-53
2022/07/09 03:40:22;;;;;;;43.97;24.45;;;;;;;20.72;100.00;102605.34;5074421;28;20036;-53
2022/07/09 03:42:48;;;;;;;51.60;24.20;;;;;;;20.75;100.00;102612.25;5069722;28;20093;-55
2022/07/09 03:45:14;;;;;;;;;;;;;;;20.83;100.00;102613.91;5069117;28;20060;-56
2022/07/09 03:47:39;;;;;;;44.43;23.57;;;;;;;20.86;100.00;102625.16;5078426;28;19928;-51
2022/07/09 03:50:06;;;;;;;44.40;25.27;;;;;;;20.74;100.00;102616.84;5070444;28;20056;-56
2022/07/09 03:52:32;;;;;;;44.08;24.20;;;;;;;20.80;100.00;102612.44;5075456;28;20088;-54
2022/07/09 03:54:57;;;;;;;46.30;22.05;;;;;;;20.75;100.00;102618.50;5075336;28;20142;-54
2022/07/09 03:57:23;;;;;;;52.50;29.02;;;;;;;20.92;100.00;102620.72;5074202;28;20037;-54
2022/07/09 03:59:48;;;;;;;48.88;27.40;;;;;;;21.02;100.00;102623.78;5072943;28;20032;-57
2022/07/09 04:02:14;;;;;;;50.35;27.65;;;;;;;21.10;100.00;102614.47;5076822;28;20041;-56
2022/07/09 04:04:40;;;;;;;52.58;25.63;;;;;;;21.11;100.00;102618.06;5074529;28;20071;-53
2022/07/09 04:07:05;;;;;;;59.45;33.17;;;;;;;21.09;100.00;102617.44;5072140;28;20063;-52
2022/07/09 04:09:31;;;;;;;55.10;28.63;;;;;;;21.08;100.00;102613.06;5075864;28;20025;-52
2022/07/09 04:11:56;;;;;;;49.80;27.47;;;;;;;21.13;100.00;102608.63;5069946;28;20045;-53
2022/07/09 04:14:22;;;;;;;40.85;23.38;;;;;;;21.08;100.00;102605.72;5074809;28;20029;-55
2022/07/09 04:16:48;;;;;;;48.83;25.77;;;;;;;21.08;100.00;102607.63;5071370;28;20045;-55
2022/07/09 04:19:13;;;;;;;47.13;24.60;;;;;;;21.00;100.00;102609.56;5073034;28;20033;-57
2022/07/09 04:21:39;;;;;;;68.55;35.80;;;;;;;21.10;100.00;102603.59;5074912;28;20335;-56
2022/07/09 04:24:04;;;;;;;46.80;25.90;;;;;;;21.16;100.00;102604.59;5073583;28;20034;-53
2022/07/09 04:26:30;;;;;;;44.50;26.20;;;;;;;21.27;100.00;102603.03;5070287;28;20040;-54
2022/07/09 04:28:56;;;;;;;52.70;26.58;;;;;;;21.42;100.00;102610.81;5072787;28;20116;-52
2022/07/09 04:31:21;;;;;;;41.08;23.70;;;;;;;21.56;100.00;102608.78;5074840;28;20032;-54
2022/07/09 04:33:47;;;;;;;43.60;23.23;;;;;;;21.64;100.00;102605.78;5074680;28;20033;-56
2022/07/09 04:36:13;;;;;;;42.40;24.50;;;;;;;21.68;100.00;102603.44;5077221;28;20043;-55
2022/07/09 04:38:39;;;;;;;57.92;30.20;;;;;;;21.79;100.00;102594.53;5070926;28;20025;-53
2022/07/09 04:41:05;;;;;;;55.17;31.57;;;;;;;21.69;100.00;102595.06;5072622;28;20049;-56
2022/07/09 04:43:31;;;;;;;39.45;22.35;;;;;;;21.75;100.00;102602.31;5072542;28;20037;-53
2022/07/09 04:45:57;;;;;;;37.80;22.77;;;;;;;21.47;100.00;102594.69;5073803;28;20104;-55
2022/07/09 04:48:22;;;;;;;37.45;21.67;;;;;;;21.73;100.00;102590.81;5080487;28;20032;-55
2022/07/09 04:50:48;;;;;;;;;;;;;;;21.60;100.00;102589.06;5075173;28;20104;-55
2022/07/09 04:53:14;;;;;;;60.83;34.10;;;;;;;21.72;100.00;102601.97;5079971;28;19912;-54
2022/07/09 04:55:39;;;;;;;57.72;31.00;;;;;;;21.65;100.00;102590.28;5077142;28;20108;-56
2022/07/09 04:58:05;;;;;;;50.60;26.33;;;;;;;21.77;100.00;102580.31;5080440;28;20083;-54
2022/07/09 05:00:32;;;;;;;43.78;24.58;;;;;;;21.87;100.00;102588.75;5081766;28;20059;-55
2022/07/09 05:02:58;;;;;;;44.50;23.57;;;;;;;22.23;100.00;102588.09;5073711;28;20073;-55
2022/07/09 05:05:25;;;;;;;40.72;22.08;;;;;;;22.30;100.00;102584.22;5069689;28;20037;-55
2022/07/09 05:07:51;;;;;;;48.27;25.60;;;;;;;22.24;100.00;102585.13;5074271;28;20039;-54
2022/07/09 05:10:17;;;;;;;;;;;;;;;22.39;100.00;102587.44;5072929;28;20052;-52
2022/07/09 05:12:44;;;;;;;38.58;20.95;;;;;;;22.47;100.00;102594.44;5072525;28;19917;-56
2022/07/09 05:15:10;;;;;;;35.95;20.38;;;;;;;22.60;100.00;102583.34;5077984;28;20147;-54
2022/07/09 05:17:36;;;;;;;;;;;;;;;22.60;100.00;102583.34;5077988;28;20040;-52
2022/07/09 05:20:06;;;;;;;37.10;20.07;;;;;;;22.23;100.00;102578.00;5074123;28;19915;-54
2022/07/09 05:22:33;;;;;;;33.77;20.43;;;;;;;22.46;100.00;102570.97;5075125;28;20102;-53
2022/07/09 05:24:59;;;;;;;35.70;20.33;;;;;;;22.78;100.00;102568.78;5077714;28;20043;-55
2022/07/09 05:27:25;;;;;;;34.15;19.92;;;;;;;23.04;100.00;102574.81;5072798;28;20052;-53
2022/07/09 05:29:51;;;;;;;32.73;19.47;;;;;;;23.31;100.00;102570.81;5077921;28;20108;-55
2022/07/09 05:32:17;;;;;;;;;;;;;;;23.26;100.00;102565.25;5073545;28;20024;-56
2022/07/09 05:34:43;;;;;;;31.50;19.27;;;;;;;23.22;100.00;102564.03;5070625;28;20002;-56
2022/07/09 05:37:08;;;;;;;34.88;18.35;;;;;;;23.42;100.00;102566.41;5075898;28;20038;-53
2022/07/09 05:39:33;;;;;;;34.55;19.77;;;;;;;23.32;100.00;102573.31;5074285;28;20041;-55
2022/07/09 05:41:59;;;;;;;33.43;18.90;;;;;;;23.44;100.00;102576.03;5073646;28;20053;-54
2022/07/09 05:44:25;;;;;;;30.25;18.92;;;;;;;23.55;100.00;102577.06;5071589;28;20294;-56
2022/07/09 05:46:50;;;;;;;39.55;20.08;;;;;;;23.51;100.00;102575.88;5075648;28;20071;-57
2022/07/09 05:49:16;;;;;;;61.05;32.03;;;;;;;23.63;100.00;102581.28;5078062;28;20079;-53
2022/07/09 05:51:41;;;;;;;35.83;21.15;;;;;;;23.76;100.00;102582.94;5078266;28;20040;-55
2022/07/09 05:54:07;;;;;;;39.13;22.42;;;;;;;23.81;100.00;102584.94;5079083;28;20036;-53
2022/07/09 05:56:34;;;;;;;32.70;19.23;;;;;;;23.98;100.00;102587.72;5074788;28;20106;-54
2022/07/09 05:59:00;;;;;;;33.87;18.70;;;;;;;24.04;100.00;102589.53;5078070;28;20528;-55
2022/07/09 06:01:25;;;;;;;32.30;18.98;;;;;;;24.19;100.00;102586.22;5074543;28;20029;-54
2022/07/09 06:03:51;;;;;;;33.40;18.60;;;;;;;24.16;100.00;102590.28;5067805;28;20037;-56
2022/07/09 06:06:16;;;;;;;31.38;18.00;;;;;;;24.30;100.00;102588.06;5074950;28;20055;-57
2022/07/09 06:08:41;;;;;;;33.33;16.45;;;;;;;24.56;100.00;102591.22;5075606;28;20055;-54
2022/07/09 06:11:07;;;;;;;27.00;16.23;;;;;;;24.63;100.00;102602.84;5073317;28;20032;-55
2022/07/09 06:13:33;;;;;;;30.23;18.05;;;;;;;24.64;100.00;102609.13;5073111;28;20028;-54
2022/07/09 06:15:58;;;;;;;36.75;17.63;;;;;;;24.77;100.00;102608.00;5074262;28;20045;-53
2022/07/09 06:18:24;;;;;;;26.33;15.27;;;;;;;24.53;100.00;102601.84;5076401;28;20025;-57
2022/07/09 06:20:49;;;;;;;27.70;15.77;;;;;;;24.24;100.00;102605.44;5075333;28;20043;-52
2022/07/09 06:23:15;;;;;;;27.00;14.98;;;;;;;24.69;100.00;102611.13;5078993;28;20092;-54
2022/07/09 06:25:40;;;;;;;21.92;12.80;;;;;;;24.81;100.00;102603.72;5076370;28;20035;-54
2022/07/09 06:28:06;;;;;;;23.52;14.25;;;;;;;24.58;100.00;102599.19;5073046;28;20098;-53
2022/07/09 06:30:33;;;;;;;22.42;13.35;;;;;;;24.27;100.00;102599.50;5071543;28;20032;-51
2022/07/09 06:33:00;;;;;;;25.87;14.20;;;;;;;24.61;100.00;102602.28;5073446;28;20049;-55
2022/07/09 06:35:27;;;;;;;28.70;16.13;;;;;;;24.80;100.00;102602.06;5072466;28;20037;-54
2022/07/09 06:37:52;;;;;;;;;;;;;;;24.72;100.00;102606.00;5071128;28;20047;-55
2022/07/09 06:40:18;;;;;;;23.63;15.23;;;;;;;24.43;100.00;102597.03;5071975;28;19913;-53
2022/07/09 06:42:43;;;;;;;29.88;14.70;;;;;;;25.04;100.00;102605.44;5075345;28;20092;-55
2022/07/09 06:45:17;;;;;;;29.87;15.20;;;;;;;25.02;100.00;102598.53;5070044;28;20051;-54
2022/07/09 06:47:43;;;;;;;28.20;16.17;;;;;;;25.28;100.00;102598.94;5072361;28;20096;-53
2022/07/09 06:50:09;;;;;;;24.65;14.43;;;;;;;24.46;100.00;102600.13;5072558;28;20040;-55
2022/07/09 06:52:35;;;;;;;;;;;;;;;24.36;100.00;102593.63;5074259;28;20025;-52
2022/07/09 06:55:00;;;;;;;22.57;14.03;;;;;;;24.03;100.00;102587.84;5073449;28;19920;-56
2022/07/09 06:57:26;;;;;;;30.77;19.50;;;;;;;24.89;100.00;102599.72;5069982;28;20059;-55
2022/07/09 06:59:52;;;;;;;21.88;13.35;;;;;;;24.63;100.00;102597.38;5069596;28;20037;-55
2022/07/09 07:02:18;;;;;;;35.80;22.00;;;;;;;24.53;100.00;102596.38;5074316;28;20066;-55
2022/07/09 07:04:44;;;;;;;;;;;;;;;24.26;100.00;102592.38;5071404;28;20055;-54
2022/07/09 07:07:09;;;;;;;26.13;14.23;;;;;;;24.05;100.00;102592.00;5072681;28;19963;-53
2022/07/09 07:09:34;;;;;;;17.70;11.73;;;;;;;24.84;100.00;102596.91;5081157;28;20059;-53
2022/07/09 07:12:00;;;;;;;20.08;13.13;;;;;;;24.80;100.00;102591.13;5072498;28;20075;-55
2022/07/09 07:14:26;;;;;;;;;;;;;;;24.95;100.00;102593.25;5071588;28;20032;-54
2022/07/09 07:16:53;;;;;;;22.77;13.27;;;;;;;23.85;100.00;102597.03;5073798;28;19908;-55
2022/07/09 07:19:22;;;;;;;23.30;12.40;;;;;;;24.01;100.00;102603.63;5067339;28;20032;-51
2022/07/09 07:21:49;;;;;;;23.70;12.13;;;;;;;24.26;100.00;102597.84;5070011;28;20048;-54
2022/07/09 07:24:14;;;;;;;41.60;18.37;;;;;;;25.16;100.00;102605.31;5068140;28;20030;-53
2022/07/09 07:26:40;;;;;;;16.70;10.38;;;;;;;24.17;100.00;102588.38;5068826;28;20037;-51
2022/07/09 07:29:05;;;;;;;18.40;9.57;;;;;;;24.22;100.00;102591.22;5072793;28;20037;-54
2022/07/09 07:31:31;;;;;;;15.07;9.73;;;;;;;24.13;100.00;102582.56;5071423;28;20052;-54
2022/07/09 07:33:57;;;;;;;12.52;7.78;;;;;;;24.42;100.00;102585.25;5065766;28;20053;-52
2022/07/09 07:36:23;;;;;;;;;;;;;;;24.39;100.00;102599.44;5072381;28;20040;-53
2022/07/09 07:38:49;;;;;;;14.80;7.93;;;;;;;24.73;100.00;102595.88;5070660;28;19922;-57
2022/07/09 07:41:18;;;;;;;18.27;7.93;;;;;;;24.52;100.00;102586.53;5070237;28;20048;-60
2022/07/09 07:43:44;;;;;;;15.30;8.50;;;;;;;24.63;100.00;102593.81;5073027;28;20096;-54
2022/07/09 07:46:10;;;;;;;16.40;8.57;;;;;;;24.53;100.00;102574.50;5070946;28;20040;-52
2022/07/09 07:48:36;;;;;;;14.52;8.48;;;;;;;24.23;100.00;102571.00;5070054;28;20032;-54
2022/07/09 07:51:03;;;;;;;14.45;7.80;;;;;;;24.62;100.00;102573.00;5069326;28;20037;-55
2022/07/09 07:53:33;;;;;;;13.73;8.27;;;;;;;24.81;100.00;102581.00;5068942;28;20041;-52
2022/07/09 07:56:00;;;;;;;17.87;8.50;;;;;;;24.65;100.00;102575.25;5066766;28;20037;-54
2022/07/09 07:58:25;;;;;;;12.63;6.93;;;;;;;25.08;100.00;102572.06;5068183;28;20468;-52
2022/07/09 08:00:51;;;;;;;15.48;8.77;;;;;;;25.33;100.00;102577.09;5070639;28;20075;-56
2022/07/09 08:03:17;;;;;;;14.05;6.85;;;;;;;25.37;100.00;102588.34;5070032;28;20041;-53
2022/07/09 08:05:43;;;;;;;16.27;8.60;;;;;;;25.27;100.00;102572.63;5071073;28;20025;-55
2022/07/09 08:08:08;;;;;;;12.15;6.40;;;;;;;25.81;100.00;102571.91;5074849;28;20095;-54
2022/07/09 08:10:33;;;;;;;24.20;10.15;;;;;;;25.90;100.00;102581.34;5073361;28;20037;-50
2022/07/09 08:12:58;;;;;;;;;;;;;;;25.99;100.00;102578.13;5077392;28;20044;-53
2022/07/09 08:15:24;;;;;;;20.57;10.47;;;;;;;25.63;100.00;102567.63;5075540;28;20375;-49
2022/07/09 08:17:49;;;;;;;17.45;10.55;;;;;;;25.50;100.00;102565.28;5078929;28;20100;-49
2022/07/09 08:20:15;;;;;;;27.95;12.77;;;;;;;25.31;100.00;102569.09;5069438;28;20067;-51
2022/07/09 08:22:40;;;;;;;18.05;8.90;;;;;;;26.01;100.00;102570.47;5075324;28;20096;-52
2022/07/09 08:25:06;;;;;;;;;;;;;;;25.47;100.00;102572.91;5069676;28;20063;-52
2022/07/09 08:27:31;;;;;;;13.50;8.40;;;;;;;25.61;100.00;102567.88;5069764;28;19924;-54
2022/07/09 08:29:56;;;;;;;19.48;10.15;;;;;;;25.33;100.00;102558.72;5071909;28;20123;-50
2022/07/09 08:32:22;;;;;;;;;;;;;;;25.69;100.00;102557.53;5069568;28;20037;-51
2022/07/09 08:34:48;;;;;;;15.00;9.30;;;;;;;25.82;100.00;102567.28;5075335;28;19950;-49
2022/07/09 08:37:13;;;;;;;;;;;;;;;25.77;100.00;102565.31;5072614;28;20056;-54
2022/07/09 08:39:39;;;;;;;19.77;10.97;;;;;;;25.67;100.00;102567.94;5070546;28;19913;-52
2022/07/09 08:42:10;;;;;;;26.85;16.65;;;;;;;25.25;100.00;102572.88;5074997;28;20078;-52
2022/07/09 08:44:38;;;;;;;19.10;11.77;;;;;;;25.37;100.00;102571.91;5078143;28;20115;-53
2022/07/09 08:47:04;;;;;;;34.97;19.30;;;;;;;25.52;100.00;102577.63;5072336;28;20029;-55
2022/07/09 08:49:31;;;;;;;86.38;48.30;;;;;;;25.37;100.00;102572.75;5076676;28;20044;-55
2022/07/09 08:51:57;;;;;;;36.47;18.17;;;;;;;25.33;100.00;102580.63;5077706;28;20033;-50
2022/07/09 08:54:23;;;;;;;17.77;10.20;;;;;;;25.24;100.00;102575.84;5073486;28;20013;-51
2022/07/09 08:56:53;;;;;;;18.50;12.67;;;;;;;25.35;100.00;102575.72;5073435;28;20025;-51
2022/07/09 08:59:18;;;;;;;44.40;25.50;;;;;;;25.51;100.00;102573.22;5069779;28;20131;-51
2022/07/09 09:01:44;;;;;;;21.10;13.18;;;;;;;25.42;100.00;102588.44;5069295;28;20037;-53
2022/07/09 09:04:10;;;;;;;27.63;15.13;;;;;;;25.48;100.00;102579.22;5069783;28;20038;-49
2022/07/09 09:06:39;;;;;;;24.52;15.45;;;;;;;25.45;100.00;102574.22;5068293;28;20048;-49
2022/07/09 09:09:07;;;;;;;25.00;14.97;;;;;;;25.34;100.00;102560.38;5075271;28;20040;-48
2022/07/09 09:11:35;;;;;;;42.87;21.03;;;;;;;25.59;100.00;102564.53;5072624;28;20113;-50
2022/07/09 09:14:01;;;;;;;16.10;10.07;;;;;;;25.96;100.00;102557.56;5070178;28;20029;-50
2022/07/09 09:16:27;;;;;;;19.05;10.60;;;;;;;26.49;100.00;102568.75;5069817;28;20033;-50
2022/07/09 09:18:53;;;;;;;15.88;9.73;;;;;;;26.59;100.00;102564.44;5077136;28;20082;-51
2022/07/09 09:21:26;;;;;;;;;;;;;;;26.91;100.00;102567.16;5071850;28;20037;-53
2022/07/09 09:23:54;;;;;;;17.53;8.83;;;;;;;27.11;100.00;102565.63;5072472;28;19916;-54
2022/07/09 09:26:22;;;;;;;19.30;10.10;;;;;;;27.36;100.00;102571.50;5072570;28;20033;-53
2022/07/09 09:28:50;;;;;;;26.90;14.87;;;;;;;27.20;100.00;102564.03;5076388;28;20039;-50
2022/07/09 09:31:23;;;;;;;19.47;10.73;;;;;;;26.67;100.00;102566.69;5074764;28;20028;-50
2022/07/09 09:33:51;;;;;;;14.43;9.03;;;;;;;26.74;100.00;102567.28;5072133;28;20055;-53
2022/07/09 09:36:28;;;;;;;15.40;9.13;;;;;;;26.96;100.00;102571.03;5072814;28;20109;-51
2022/07/09 09:38:53;;;;;;;12.13;8.52;;;;;;;26.50;100.00;102572.34;5069580;28;20128;-49
2022/07/09 09:41:24;;;;;;;;;;;;;;;26.87;100.00;102570.69;5069091;28;20105;-55
2022/07/09 09:43:53;;;;;;;12.73;9.80;;;;;;;26.81;100.00;102556.06;5069097;28;19983;-51
2022/07/09 09:46:19;;;;;;;64.10;34.07;;;;;;;26.50;100.00;102555.88;5072623;28;20036;-48
2022/07/09 09:48:44;;;;;;;;;;;;;;;26.45;100.00;102559.41;5073910;28;20082;-52
2022/07/09 09:51:13;;;;;;;15.83;8.47;;;;;;;26.89;100.00;102557.53;5067799;28;19920;-53
2022/07/09 09:53:41;;;;;;;15.70;7.87;;;;;;;27.46;100.00;102553.13;5069244;28;20036;-53
2022/07/09 09:56:08;;;;;;;17.83;10.10;;;;;;;28.08;100.00;102555.22;5069432;28;20041;-57
2022/07/09 09:58:35;;;;;;;40.60;21.47;;;;;;;28.24;100.00;102558.03;5067375;28;20025;-50
2022/07/09 10:01:00;;;;;;;;;;;;;;;27.55;100.00;102558.13;5070945;28;20083;-49
2022/07/09 10:03:26;;;;;;;15.00;8.27;;;;;;;28.23;100.00;102548.94;5071215;28;19999;-53
2022/07/09 10:05:51;;;;;;;23.17;11.33;;;;;;;28.60;100.00;102558.00;5074322;28;20029;-53
2022/07/09 10:08:17;;;;;;;;;;;;;;;27.99;100.00;102546.69;5072937;28;20059;-52
2022/07/09 10:10:51;;;;;;;11.67;5.37;;;;;;;27.86;100.00;102563.72;5072459;28;19940;-52
2022/07/09 10:13:21;;;;;;;10.43;5.60;;;;;;;28.47;100.00;102573.13;5070467;28;20094;-53
2022/07/09 10:15:50;;;;;;;9.13;3.23;;;;;;;28.03;100.00;102566.22;5071068;28;20120;-52
2022/07/09 10:18:19;;;;;;;8.02;3.58;;;;;;;28.59;100.00;102565.44;5069021;28;20099;-52
2022/07/09 10:20:45;;;;;;;6.93;4.35;;;;;;;28.60;100.00;102571.75;5070584;28;20159;-53
2022/07/09 10:23:22;;;;;;;6.63;3.88;;;;;;;29.26;100.00;102571.91;5069698;28;20052;-50
2022/07/09 10:25:55;;;;;;;8.75;2.67;;;;;;;29.38;100.00;102574.34;5072924;28;20032;-52
2022/07/09 10:28:22;;;;;;;6.68;3.10;;;;;;;29.31;100.00;102569.97;5070737;28;20100;-50
2022/07/09 10:30:48;;;;;;;5.88;3.00;;;;;;;28.71;100.00;102573.41;5068959;28;20040;-49
2022/07/09 10:33:22;;;;;;;6.40;2.50;;;;;;;29.28;100.00;102570.50;5070387;28;20045;-53
2022/07/09 10:35:52;;;;;;;5.28;2.83;;;;;;;30.00;100.00;102568.50;5067557;28;20048;-56
2022/07/09 10:38:20;;;;;;;7.88;3.47;;;;;;;29.61;100.00;102575.63;5068051;28;20041;-51
2022/07/09 10:40:57;;;;;;;7.55;4.00;;;;;;;29.28;100.00;102570.50;5074370;28;20058;-52
2022/07/09 10:43:46;;;;;;;12.63;7.50;;;;;;;29.00;100.00;102563.75;5074327;28;20044;-56
2022/07/09 10:46:14;;;;;;;4.13;2.40;;;;;;;28.55;100.00;102574.50;5069847;28;20029;-54
2022/07/09 10:48:40;;;;;;;8.68;3.80;;;;;;;30.54;100.00;102582.44;5069886;28;20024;-51
2022/07/09 10:51:06;;;;;;;6.82;3.67;;;;;;;31.15;100.00;102586.50;5065535;28;20033;-52
2022/07/09 10:53:31;;;;;;;10.32;3.63;;;;;;;31.19;100.00;102592.28;5072518;28;20045;-51
2022/07/09 10:55:58;;;;;;;8.40;2.20;;;;;;;30.90;100.00;102584.84;5067872;28;20037;-49
2022/07/09 10:58:25;;;;;;;3.10;1.83;;;;;;;30.53;100.00;102587.13;5063672;28;20037;-53
2022/07/09 11:00:58;;;;;;;4.78;2.03;;;;;;;30.46;100.00;102581.97;5064515;28;20031;-49
2022/07/09 11:03:28;;;;;;;3.45;1.58;;;;;;;30.97;100.00;102595.56;5067689;28;20039;-51
2022/07/09 11:05:54;;;;;;;6.45;2.95;;;;;;;31.19;100.00;102589.53;5072885;28;20033;-49
2022/07/09 11:08:19;;;;;;;5.38;1.30;;;;;;;30.96;100.00;102593.91;5066812;28;20048;-53